sensor_id;sensor_type;location;lat;lon;timestamp;pressure;altitude;pressure_sealevel;temperature;humidity
48041;BME280;33815;48.386;11.738;2023-07-24T00:01:12;95999.81;;;15.18;100.00
48041;BME280;33815;48.386;11.738;2023-07-24T00:03:37;95988.28;;;15.12;100.00
48041;BME280;33815;48.386;11.738;2023-07-24T00:06:02;95998.78;;;15.12;100.00
48041;BME280;33815;48.386;11.738;2023-07-24T00:08:27;95973.88;;;15.01;100.00
48041;BME280;33815;48.386;11.738;2023-07-24T00:10:53;95967.00;;;15.00;100.00
48041;BME280;33815;48.386;11.738;2023-07-24T00:13:18;95959.34;;;14.99;100.00
48041;BME280;33815;48.386;11.738;2023-07-24T00:15:43;95966.22;;;15.00;100.00
48041;BME280;33815;48.386;11.738;2023-07-24T00:18:09;95964.34;;;14.94;100.00
48041;BME280;33815;48.386;11.738;2023-07-24T00:20:34;95961.38;;;15.03;100.00
48041;BME280;33815;48.386;11.738;2023-07-24T00:22:59;95947.41;;;14.96;100.00
48041;BME280;33815;48.386;11.738;2023-07-24T00:25:24;95953.00;;;14.86;100.00
48041;BME280;33815;48.386;11.738;2023-07-24T00:27:50;95952.59;;;14.83;100.00
48041;BME280;33815;48.386;11.738;2023-07-24T00:30:15;95939.63;;;14.75;100.00
48041;BME280;33815;48.386;11.738;2023-07-24T00:32:40;95945.47;;;14.77;100.00
48041;BME280;33815;48.386;11.738;2023-07-24T00:35:06;95940.84;;;14.79;100.00
48041;BME280;33815;48.386;11.738;2023-07-24T00:37:31;95932.94;;;14.72;100.00
48041;BME280;33815;48.386;11.738;2023-07-24T00:39:57;95924.63;;;14.68;100.00
48041;BME280;33815;48.386;11.738;2023-07-24T00:42:22;95920.72;;;14.57;100.00
48041;BME280;33815;48.386;11.738;2023-07-24T00:44:47;95931.31;;;14.71;100.00
48041;BME280;33815;48.386;11.738;2023-07-24T00:47:13;95903.69;;;14.47;100.00
48041;BME280;33815;48.386;11.738;2023-07-24T00:49:38;95915.81;;;14.54;100.00
48041;BME280;33815;48.386;11.738;2023-07-24T00:52:04;95925.50;;;14.54;100.00
48041;BME280;33815;48.386;11.738;2023-07-24T00:54:30;95921.47;;;14.51;100.00
48041;BME280;33815;48.386;11.738;2023-07-24T00:56:57;95925.84;;;14.44;100.00
48041;BME280;33815;48.386;11.738;2023-07-24T00:59:23;95929.25;;;14.38;100.00
48041;BME280;33815;48.386;11.738;2023-07-24T01:01:48;95927.44;;;14.38;100.00
48041;BME280;33815;48.386;11.738;2023-07-24T01:04:14;95903.78;;;14.32;100.00
48041;BME280;33815;48.386;11.738;2023-07-24T01:06:39;95905.06;;;14.43;100.00
48041;BME280;33815;48.386;11.738;2023-07-24T01:09:05;95914.50;;;14.37;100.00
48041;BME280;33815;48.386;11.738;2023-07-24T01:11:38;95915.88;;;14.33;100.00
48041;BME280;33815;48.386;11.738;2023-07-24T01:16:54;95913.50;;;14.38;100.00
48041;BME280;33815;48.386;11.738;2023-07-24T01:19:46;95913.47;;;14.31;100.00
48041;BME280;33815;48.386;11.738;2023-07-24T01:25:10;95901.94;;;14.26;100.00
48041;BME280;33815;48.386;11.738;2023-07-24T01:27:45;95900.28;;;14.25;100.00
48041;BME280;33815;48.386;11.738;2023-07-24T01:30:11;95897.06;;;14.22;100.00
48041;BME280;33815;48.386;11.738;2023-07-24T01:32:37;95893.81;;;14.20;100.00
48041;BME280;33815;48.386;11.738;2023-07-24T01:35:03;95886.72;;;14.14;100.00
48041;BME280;33815;48.386;11.738;2023-07-24T01:37:30;95898.13;;;14.28;100.00
48041;BME280;33815;48.386;11.738;2023-07-24T01:39:56;95876.09;;;14.22;100.00
48041;BME280;33815;48.386;11.738;2023-07-24T01:42:22;95887.31;;;14.38;100.00
48041;BME280;33815;48.386;11.738;2023-07-24T01:44:54;95886.53;;;14.44;100.00
48041;BME280;33815;48.386;11.738;2023-07-24T01:47:20;95887.75;;;14.48;100.00
48041;BME280;33815;48.386;11.738;2023-07-24T01:49:46;95891.47;;;14.61;100.00
48041;BME280;33815;48.386;11.738;2023-07-24T01:52:11;95898.41;;;14.68;100.00
48041;BME280;33815;48.386;11.738;2023-07-24T01:54:36;95910.38;;;14.78;100.00
48041;BME280;33815;48.386;11.738;2023-07-24T01:57:01;95923.13;;;14.87;100.00
48041;BME280;33815;48.386;11.738;2023-07-24T01:59:27;95924.63;;;15.03;100.00
48041;BME280;33815;48.386;11.738;2023-07-24T02:01:52;95910.38;;;15.19;100.00
48041;BME280;33815;48.386;11.738;2023-07-24T02:04:17;95900.91;;;15.25;100.00
48041;BME280;33815;48.386;11.738;2023-07-24T02:06:43;95897.47;;;15.24;100.00
48041;BME280;33815;48.386;11.738;2023-07-24T02:09:08;95905.34;;;15.18;100.00
48041;BME280;33815;48.386;11.738;2023-07-24T02:11:33;95898.66;;;15.15;100.00
48041;BME280;33815;48.386;11.738;2023-07-24T02:13:59;95901.28;;;15.15;100.00
48041;BME280;33815;48.386;11.738;2023-07-24T02:16:24;95906.53;;;15.15;100.00
48041;BME280;33815;48.386;11.738;2023-07-24T02:18:49;95897.25;;;15.19;100.00
48041;BME280;33815;48.386;11.738;2023-07-24T02:21:15;95874.78;;;15.10;100.00
48041;BME280;33815;48.386;11.738;2023-07-24T02:23:40;95881.25;;;15.07;100.00
48041;BME280;33815;48.386;11.738;2023-07-24T02:26:05;95896.44;;;15.19;100.00
48041;BME280;33815;48.386;11.738;2023-07-24T02:28:30;95886.38;;;15.22;100.00
48041;BME280;33815;48.386;11.738;2023-07-24T02:30:56;95908.59;;;15.27;100.00
48041;BME280;33815;48.386;11.738;2023-07-24T02:33:22;95920.09;;;15.25;100.00
48041;BME280;33815;48.386;11.738;2023-07-24T02:35:49;95942.19;;;15.45;100.00
48041;BME280;33815;48.386;11.738;2023-07-24T02:38:16;95978.75;;;15.46;100.00
48041;BME280;33815;48.386;11.738;2023-07-24T02:40:41;96011.88;;;15.82;100.00
48041;BME280;33815;48.386;11.738;2023-07-24T02:43:06;95976.50;;;15.91;100.00
48041;BME280;33815;48.386;11.738;2023-07-24T02:45:35;95995.69;;;15.92;100.00
48041;BME280;33815;48.386;11.738;2023-07-24T02:48:00;95970.16;;;15.72;100.00
48041;BME280;33815;48.386;11.738;2023-07-24T02:50:27;95939.97;;;15.48;100.00
48041;BME280;33815;48.386;11.738;2023-07-24T02:52:52;95893.25;;;15.23;100.00
48041;BME280;33815;48.386;11.738;2023-07-24T02:55:17;95879.63;;;15.00;100.00
48041;BME280;33815;48.386;11.738;2023-07-24T02:57:42;95885.63;;;14.94;100.00
48041;BME280;33815;48.386;11.738;2023-07-24T03:00:08;95894.88;;;14.89;100.00
48041;BME280;33815;48.386;11.738;2023-07-24T03:02:34;95889.16;;;14.72;100.00
48041;BME280;33815;48.386;11.738;2023-07-24T03:04:59;95904.66;;;14.67;100.00
48041;BME280;33815;48.386;11.738;2023-07-24T03:07:24;95908.69;;;14.63;100.00
48041;BME280;33815;48.386;11.738;2023-07-24T03:09:50;95915.28;;;14.59;100.00
48041;BME280;33815;48.386;11.738;2023-07-24T03:12:16;95962.56;;;14.66;100.00
48041;BME280;33815;48.386;11.738;2023-07-24T03:14:41;95988.78;;;14.66;100.00
48041;BME280;33815;48.386;11.738;2023-07-24T03:17:06;96094.75;;;14.71;100.00
48041;BME280;33815;48.386;11.738;2023-07-24T03:19:31;96136.56;;;14.80;100.00
48041;BME280;33815;48.386;11.738;2023-07-24T03:21:57;96183.25;;;15.06;100.00
48041;BME280;33815;48.386;11.738;2023-07-24T03:24:22;96185.25;;;15.25;100.00
48041;BME280;33815;48.386;11.738;2023-07-24T03:26:47;96163.63;;;15.52;100.00
48041;BME280;33815;48.386;11.738;2023-07-24T03:29:13;96169.41;;;15.69;100.00
48041;BME280;33815;48.386;11.738;2023-07-24T03:31:38;96135.69;;;15.72;100.00
48041;BME280;33815;48.386;11.738;2023-07-24T03:34:03;96129.31;;;15.88;100.00
48041;BME280;33815;48.386;11.738;2023-07-24T03:36:28;96120.06;;;15.99;100.00
48041;BME280;33815;48.386;11.738;2023-07-24T03:38:54;96109.09;;;15.82;100.00
48041;BME280;33815;48.386;11.738;2023-07-24T03:41:19;96111.72;;;15.82;100.00
48041;BME280;33815;48.386;11.738;2023-07-24T03:43:45;96088.44;;;15.79;100.00
48041;BME280;33815;48.386;11.738;2023-07-24T03:46:10;96058.06;;;15.76;100.00
48041;BME280;33815;48.386;11.738;2023-07-24T03:48:35;96037.94;;;15.84;100.00
48041;BME280;33815;48.386;11.738;2023-07-24T03:51:02;95990.84;;;15.82;100.00
48041;BME280;33815;48.386;11.738;2023-07-24T03:53:28;95898.66;;;15.90;100.00
48041;BME280;33815;48.386;11.738;2023-07-24T03:55:53;95841.47;;;15.92;100.00
48041;BME280;33815;48.386;11.738;2023-07-24T03:58:19;95860.28;;;16.03;100.00
48041;BME280;33815;48.386;11.738;2023-07-24T04:00:44;95935.50;;;16.10;100.00
48041;BME280;33815;48.386;11.738;2023-07-24T04:03:09;95947.56;;;15.85;100.00
48041;BME280;33815;48.386;11.738;2023-07-24T04:05:35;95925.16;;;15.82;100.00
48041;BME280;33815;48.386;11.738;2023-07-24T04:08:01;95906.56;;;15.97;100.00
48041;BME280;33815;48.386;11.738;2023-07-24T04:10:26;95897.06;;;15.89;100.00
48041;BME280;33815;48.386;11.738;2023-07-24T04:12:52;95897.06;;;15.83;100.00
48041;BME280;33815;48.386;11.738;2023-07-24T04:15:17;95867.91;;;15.77;100.00
48041;BME280;33815;48.386;11.738;2023-07-24T04:17:43;95846.50;;;15.81;100.00
48041;BME280;33815;48.386;11.738;2023-07-24T04:20:08;95839.44;;;15.81;100.00
48041;BME280;33815;48.386;11.738;2023-07-24T04:22:34;95842.47;;;15.85;100.00
48041;BME280;33815;48.386;11.738;2023-07-24T04:24:59;95827.31;;;15.80;100.00
48041;BME280;33815;48.386;11.738;2023-07-24T04:27:24;95849.56;;;15.91;100.00
48041;BME280;33815;48.386;11.738;2023-07-24T04:29:49;95845.72;;;15.93;100.00
48041;BME280;33815;48.386;11.738;2023-07-24T04:32:15;95853.63;;;15.93;100.00
48041;BME280;33815;48.386;11.738;2023-07-24T04:34:40;95857.03;;;16.01;100.00
48041;BME280;33815;48.386;11.738;2023-07-24T04:37:05;95853.81;;;16.05;100.00
48041;BME280;33815;48.386;11.738;2023-07-24T04:39:30;95845.31;;;16.03;100.00
48041;BME280;33815;48.386;11.738;2023-07-24T04:41:56;95856.22;;;16.07;100.00
48041;BME280;33815;48.386;11.738;2023-07-24T04:44:21;95871.19;;;16.00;100.00
48041;BME280;33815;48.386;11.738;2023-07-24T04:46:46;95888.38;;;15.96;100.00
48041;BME280;33815;48.386;11.738;2023-07-24T04:49:11;95904.53;;;16.06;100.00
48041;BME280;33815;48.386;11.738;2023-07-24T04:51:37;95909.00;;;15.99;100.00
48041;BME280;33815;48.386;11.738;2023-07-24T04:54:02;95906.56;;;15.97;100.00
48041;BME280;33815;48.386;11.738;2023-07-24T04:56:27;95875.63;;;16.13;100.00
48041;BME280;33815;48.386;11.738;2023-07-24T04:58:53;95897.09;;;16.16;100.00
48041;BME280;33815;48.386;11.738;2023-07-24T05:01:18;95880.88;;;16.33;100.00
48041;BME280;33815;48.386;11.738;2023-07-24T05:03:43;95837.84;;;16.20;100.00
48041;BME280;33815;48.386;11.738;2023-07-24T05:06:08;95850.97;;;16.20;100.00
48041;BME280;33815;48.386;11.738;2023-07-24T05:08:34;95851.78;;;16.21;100.00
48041;BME280;33815;48.386;11.738;2023-07-24T05:10:59;95861.28;;;16.22;100.00
48041;BME280;33815;48.386;11.738;2023-07-24T05:13:25;95866.97;;;16.19;100.00
48041;BME280;33815;48.386;11.738;2023-07-24T05:15:50;95885.97;;;16.27;100.00
48041;BME280;33815;48.386;11.738;2023-07-24T05:18:16;95877.66;;;16.31;100.00
48041;BME280;33815;48.386;11.738;2023-07-24T05:20:45;95865.72;;;16.21;100.00
48041;BME280;33815;48.386;11.738;2023-07-24T05:23:11;95868.13;;;16.43;100.00
48041;BME280;33815;48.386;11.738;2023-07-24T05:25:37;95856.19;;;16.34;100.00
48041;BME280;33815;48.386;11.738;2023-07-24T05:28:02;95849.13;;;16.41;100.00
48041;BME280;33815;48.386;11.738;2023-07-24T05:30:27;95778.72;;;16.36;100.00
48041;BME280;33815;48.386;11.738;2023-07-24T05:32:53;95715.69;;;16.16;100.00
48041;BME280;33815;48.386;11.738;2023-07-24T05:35:18;95786.47;;;16.18;100.00
48041;BME280;33815;48.386;11.738;2023-07-24T05:37:44;95844.09;;;16.06;100.00
48041;BME280;33815;48.386;11.738;2023-07-24T05:40:09;95823.47;;;16.23;100.00
48041;BME280;33815;48.386;11.738;2023-07-24T05:42:34;95819.22;;;16.29;100.00
48041;BME280;33815;48.386;11.738;2023-07-24T05:45:07;95809.28;;;16.24;100.00
48041;BME280;33815;48.386;11.738;2023-07-24T05:47:32;95816.59;;;16.08;100.00
48041;BME280;33815;48.386;11.738;2023-07-24T05:49:57;95812.34;;;16.07;100.00
48041;BME280;33815;48.386;11.738;2023-07-24T05:52:23;95815.41;;;15.98;100.00
48041;BME280;33815;48.386;11.738;2023-07-24T05:54:48;95834.59;;;16.05;100.00
48041;BME280;33815;48.386;11.738;2023-07-24T05:57:13;95840.63;;;16.25;100.00
48041;BME280;33815;48.386;11.738;2023-07-24T05:59:38;95842.44;;;16.52;100.00
48041;BME280;33815;48.386;11.738;2023-07-24T06:02:04;95841.81;;;16.56;100.00
48041;BME280;33815;48.386;11.738;2023-07-24T06:04:30;95823.72;;;16.80;100.00
48041;BME280;33815;48.386;11.738;2023-07-24T06:06:55;95812.78;;;16.90;100.00
48041;BME280;33815;48.386;11.738;2023-07-24T06:09:20;95815.94;;;17.12;100.00
48041;BME280;33815;48.386;11.738;2023-07-24T06:11:46;95821.41;;;17.10;100.00
48041;BME280;33815;48.386;11.738;2023-07-24T06:14:11;95826.44;;;17.19;100.00
48041;BME280;33815;48.386;11.738;2023-07-24T06:16:36;95822.16;;;17.24;100.00
48041;BME280;33815;48.386;11.738;2023-07-24T06:19:01;95838.81;;;17.50;100.00
48041;BME280;33815;48.386;11.738;2023-07-24T06:21:27;95836.91;;;17.64;100.00
48041;BME280;33815;48.386;11.738;2023-07-24T06:23:52;95822.00;;;17.51;100.00
48041;BME280;33815;48.386;11.738;2023-07-24T06:26:17;95815.47;;;17.60;100.00
48041;BME280;33815;48.386;11.738;2023-07-24T06:28:43;95821.34;;;17.88;100.00
48041;BME280;33815;48.386;11.738;2023-07-24T06:31:08;95796.97;;;17.92;100.00
48041;BME280;33815;48.386;11.738;2023-07-24T06:33:33;95798.38;;;17.95;100.00
48041;BME280;33815;48.386;11.738;2023-07-24T06:35:58;95781.56;;;17.96;100.00
48041;BME280;33815;48.386;11.738;2023-07-24T06:38:24;95775.47;;;17.95;100.00
48041;BME280;33815;48.386;11.738;2023-07-24T06:40:49;95762.88;;;17.97;100.00
48041;BME280;33815;48.386;11.738;2023-07-24T06:43:14;95782.59;;;18.13;100.00
48041;BME280;33815;48.386;11.738;2023-07-24T06:45:39;95782.19;;;18.17;100.00
48041;BME280;33815;48.386;11.738;2023-07-24T06:48:05;95798.47;;;18.32;100.00
48041;BME280;33815;48.386;11.738;2023-07-24T06:50:30;95798.09;;;18.65;100.00
48041;BME280;33815;48.386;11.738;2023-07-24T06:52:56;95788.75;;;18.88;100.00
48041;BME280;33815;48.386;11.738;2023-07-24T06:55:21;95777.09;;;19.38;100.00
48041;BME280;33815;48.386;11.738;2023-07-24T06:57:46;95769.53;;;19.42;100.00
48041;BME280;33815;48.386;11.738;2023-07-24T07:00:12;95752.66;;;19.66;100.00
48041;BME280;33815;48.386;11.738;2023-07-24T07:02:38;95759.28;;;19.99;100.00
48041;BME280;33815;48.386;11.738;2023-07-24T07:05:04;95751.81;;;19.96;100.00
48041;BME280;33815;48.386;11.738;2023-07-24T07:07:30;95756.75;;;20.16;100.00
48041;BME280;33815;48.386;11.738;2023-07-24T07:09:55;95776.16;;;20.46;100.00
48041;BME280;33815;48.386;11.738;2023-07-24T07:12:20;95778.38;;;20.37;100.00
48041;BME280;33815;48.386;11.738;2023-07-24T07:14:46;95783.63;;;20.61;100.00
48041;BME280;33815;48.386;11.738;2023-07-24T07:17:11;95795.16;;;21.36;100.00
48041;BME280;33815;48.386;11.738;2023-07-24T07:19:36;95809.34;;;21.59;100.00
48041;BME280;33815;48.386;11.738;2023-07-24T07:22:01;95820.94;;;21.52;100.00
48041;BME280;33815;48.386;11.738;2023-07-24T07:24:27;95870.25;;;21.53;100.00
48041;BME280;33815;48.386;11.738;2023-07-24T07:26:52;95893.69;;;21.33;100.00
48041;BME280;33815;48.386;11.738;2023-07-24T07:29:17;95896.88;;;20.94;100.00
48041;BME280;33815;48.386;11.738;2023-07-24T07:31:42;95906.34;;;20.78;100.00
48041;BME280;33815;48.386;11.738;2023-07-24T07:34:08;95944.59;;;20.70;100.00
48041;BME280;33815;48.386;11.738;2023-07-24T07:36:33;95984.53;;;20.93;100.00
48041;BME280;33815;48.386;11.738;2023-07-24T07:38:58;95986.38;;;20.92;100.00
48041;BME280;33815;48.386;11.738;2023-07-24T07:41:23;95993.88;;;20.83;100.00
48041;BME280;33815;48.386;11.738;2023-07-24T07:43:49;96008.16;;;20.52;100.00
48041;BME280;33815;48.386;11.738;2023-07-24T07:46:14;96010.59;;;20.11;100.00
48041;BME280;33815;48.386;11.738;2023-07-24T07:48:39;96016.59;;;19.88;100.00
48041;BME280;33815;48.386;11.738;2023-07-24T07:51:06;96018.81;;;19.54;100.00
48041;BME280;33815;48.386;11.738;2023-07-24T07:53:31;96028.91;;;19.20;100.00
48041;BME280;33815;48.386;11.738;2023-07-24T07:55:57;96015.16;;;18.86;100.00
48041;BME280;33815;48.386;11.738;2023-07-24T07:58:25;96021.84;;;18.63;100.00
48041;BME280;33815;48.386;11.738;2023-07-24T08:00:50;96021.69;;;18.58;100.00
48041;BME280;33815;48.386;11.738;2023-07-24T08:03:15;96026.56;;;18.61;100.00
48041;BME280;33815;48.386;11.738;2023-07-24T08:05:40;96025.16;;;18.59;100.00
48041;BME280;33815;48.386;11.738;2023-07-24T08:08:06;96023.97;;;18.55;100.00
48041;BME280;33815;48.386;11.738;2023-07-24T08:10:31;96030.00;;;18.30;100.00
48041;BME280;33815;48.386;11.738;2023-07-24T08:12:56;96022.00;;;18.11;100.00
48041;BME280;33815;48.386;11.738;2023-07-24T08:15:21;96024.34;;;17.81;100.00
48041;BME280;33815;48.386;11.738;2023-07-24T08:17:47;96028.69;;;17.55;100.00
48041;BME280;33815;48.386;11.738;2023-07-24T08:20:12;96011.75;;;17.24;100.00
48041;BME280;33815;48.386;11.738;2023-07-24T08:22:37;96028.34;;;17.32;100.00
48041;BME280;33815;48.386;11.738;2023-07-24T08:25:03;96019.88;;;17.16;100.00
48041;BME280;33815;48.386;11.738;2023-07-24T08:27:28;96015.25;;;17.05;100.00
48041;BME280;33815;48.386;11.738;2023-07-24T08:29:54;96001.50;;;16.89;100.00
48041;BME280;33815;48.386;11.738;2023-07-24T08:32:20;95974.34;;;16.75;100.00
48041;BME280;33815;48.386;11.738;2023-07-24T08:34:45;95997.22;;;16.75;100.00
48041;BME280;33815;48.386;11.738;2023-07-24T08:37:13;95985.03;;;16.87;100.00
48041;BME280;33815;48.386;11.738;2023-07-24T08:39:38;95978.19;;;16.86;100.00
48041;BME280;33815;48.386;11.738;2023-07-24T08:42:13;95964.44;;;16.98;100.00
48041;BME280;33815;48.386;11.738;2023-07-24T08:44:39;95925.94;;;16.97;100.00
48041;BME280;33815;48.386;11.738;2023-07-24T08:47:06;95936.69;;;16.95;100.00
48041;BME280;33815;48.386;11.738;2023-07-24T08:49:34;95927.78;;;16.89;100.00
48041;BME280;33815;48.386;11.738;2023-07-24T08:52:01;95917.47;;;16.94;100.00
48041;BME280;33815;48.386;11.738;2023-07-24T08:54:27;95890.66;;;17.11;100.00
48041;BME280;33815;48.386;11.738;2023-07-24T08:56:53;95896.31;;;17.21;100.00
48041;BME280;33815;48.386;11.738;2023-07-24T08:59:19;95896.31;;;17.21;100.00
48041;BME280;33815;48.386;11.738;2023-07-24T09:01:44;95885.06;;;17.39;100.00
48041;BME280;33815;48.386;11.738;2023-07-24T09:04:09;95873.06;;;17.82;100.00
48041;BME280;33815;48.386;11.738;2023-07-24T09:06:35;95831.47;;;17.91;100.00
48041;BME280;33815;48.386;11.738;2023-07-24T09:09:01;95771.53;;;18.23;100.00
48041;BME280;33815;48.386;11.738;2023-07-24T09:11:27;95770.41;;;18.56;100.00
48041;BME280;33815;48.386;11.738;2023-07-24T09:13:52;95759.97;;;18.80;100.00
48041;BME280;33815;48.386;11.738;2023-07-24T09:16:25;95748.25;;;19.37;100.00
48041;BME280;33815;48.386;11.738;2023-07-24T09:18:51;95741.00;;;19.86;100.00
48041;BME280;33815;48.386;11.738;2023-07-24T09:21:29;95762.84;;;20.17;100.00
48041;BME280;33815;48.386;11.738;2023-07-24T09:23:55;95772.59;;;20.52;100.00
48041;BME280;33815;48.386;11.738;2023-07-24T09:26:20;95792.03;;;20.58;100.00
48041;BME280;33815;48.386;11.738;2023-07-24T09:28:53;95799.84;;;20.64;100.00
48041;BME280;33815;48.386;11.738;2023-07-24T09:31:18;95786.16;;;20.67;100.00
48041;BME280;33815;48.386;11.738;2023-07-24T09:33:44;95797.22;;;20.76;100.00
48041;BME280;33815;48.386;11.738;2023-07-24T09:36:09;95786.69;;;20.93;100.00
48041;BME280;33815;48.386;11.738;2023-07-24T09:38:36;95785.78;;;21.16;100.00
48041;BME280;33815;48.386;11.738;2023-07-24T09:41:02;95774.88;;;21.13;100.00
48041;BME280;33815;48.386;11.738;2023-07-24T09:43:29;95758.81;;;21.19;100.00
48041;BME280;33815;48.386;11.738;2023-07-24T09:45:55;95758.72;;;20.85;100.00
48041;BME280;33815;48.386;11.738;2023-07-24T09:48:23;95773.22;;;20.95;100.00
48041;BME280;33815;48.386;11.738;2023-07-24T09:50:54;95781.19;;;20.83;100.00
48041;BME280;33815;48.386;11.738;2023-07-24T09:56:04;95793.44;;;20.36;100.00
48041;BME280;33815;48.386;11.738;2023-07-24T09:58:32;95775.88;;;20.18;100.00
48041;BME280;33815;48.386;11.738;2023-07-24T10:00:58;95782.53;;;20.33;100.00
48041;BME280;33815;48.386;11.738;2023-07-24T10:03:23;95800.53;;;20.71;100.00
48041;BME280;33815;48.386;11.738;2023-07-24T10:05:49;95788.09;;;21.42;100.00
48041;BME280;33815;48.386;11.738;2023-07-24T10:08:17;95800.63;;;22.09;100.00
48041;BME280;33815;48.386;11.738;2023-07-24T10:10:42;95789.91;;;22.21;100.00
48041;BME280;33815;48.386;11.738;2023-07-24T10:13:09;95808.38;;;22.50;100.00
48041;BME280;33815;48.386;11.738;2023-07-24T10:15:37;95810.59;;;22.02;100.00
48041;BME280;33815;48.386;11.738;2023-07-24T10:18:05;95805.38;;;21.90;100.00
48041;BME280;33815;48.386;11.738;2023-07-24T10:20:35;95796.34;;;21.57;100.00
48041;BME280;33815;48.386;11.738;2023-07-24T10:23:05;95789.03;;;21.64;100.00
48041;BME280;33815;48.386;11.738;2023-07-24T10:25:36;95791.38;;;21.78;100.00
48041;BME280;33815;48.386;11.738;2023-07-24T10:28:06;95792.25;;;22.00;100.00
48041;BME280;33815;48.386;11.738;2023-07-24T10:30:36;95812.56;;;22.46;100.00
48041;BME280;33815;48.386;11.738;2023-07-24T10:33:13;95794.44;;;22.59;100.00
48041;BME280;33815;48.386;11.738;2023-07-24T10:35:39;95805.97;;;22.48;100.00
48041;BME280;33815;48.386;11.738;2023-07-24T10:38:05;95794.53;;;22.65;100.00
48041;BME280;33815;48.386;11.738;2023-07-24T10:40:32;95782.34;;;22.69;99.97
48041;BME280;33815;48.386;11.738;2023-07-24T10:43:04;95766.97;;;23.15;97.82
48041;BME280;33815;48.386;11.738;2023-07-24T10:45:50;95780.25;;;23.42;99.03
48041;BME280;33815;48.386;11.738;2023-07-24T10:48:17;95778.56;;;23.09;95.35
48041;BME280;33815;48.386;11.738;2023-07-24T10:50:45;95781.34;;;22.75;96.71
48041;BME280;33815;48.386;11.738;2023-07-24T10:53:13;95790.28;;;22.47;94.85
48041;BME280;33815;48.386;11.738;2023-07-24T10:55:39;95787.50;;;22.36;97.66
48041;BME280;33815;48.386;11.738;2023-07-24T10:58:05;95781.63;;;22.34;97.49
48041;BME280;33815;48.386;11.738;2023-07-24T11:00:31;95786.38;;;22.32;100.00
48041;BME280;33815;48.386;11.738;2023-07-24T11:02:56;95784.50;;;22.50;99.55
48041;BME280;33815;48.386;11.738;2023-07-24T11:05:22;95778.75;;;22.58;98.58
48041;BME280;33815;48.386;11.738;2023-07-24T11:07:48;95781.78;;;22.67;100.00
48041;BME280;33815;48.386;11.738;2023-07-24T11:10:15;95759.72;;;23.10;100.00
48041;BME280;33815;48.386;11.738;2023-07-24T11:12:40;95769.53;;;23.65;99.05
48041;BME280;33815;48.386;11.738;2023-07-24T11:15:06;95760.72;;;23.91;86.21
48041;BME280;33815;48.386;11.738;2023-07-24T11:17:35;95767.50;;;24.04;86.71
48041;BME280;33815;48.386;11.738;2023-07-24T11:20:10;95747.69;;;24.33;85.16
48041;BME280;33815;48.386;11.738;2023-07-24T11:22:38;95755.53;;;24.55;82.45
48041;BME280;33815;48.386;11.738;2023-07-24T11:25:04;95752.47;;;24.84;83.21
48041;BME280;33815;48.386;11.738;2023-07-24T11:27:30;95751.22;;;25.07;83.24
48041;BME280;33815;48.386;11.738;2023-07-24T11:29:55;95741.34;;;25.18;78.01
48041;BME280;33815;48.386;11.738;2023-07-24T11:32:21;95732.84;;;25.21;73.64
48041;BME280;33815;48.386;11.738;2023-07-24T11:34:48;95721.97;;;25.63;69.49
48041;BME280;33815;48.386;11.738;2023-07-24T11:37:13;95713.69;;;25.86;63.29
48041;BME280;33815;48.386;11.738;2023-07-24T11:39:39;95705.16;;;25.73;63.30
48041;BME280;33815;48.386;11.738;2023-07-24T11:42:05;95711.00;;;25.80;66.06
48041;BME280;33815;48.386;11.738;2023-07-24T11:44:30;95725.66;;;26.14;64.99
48041;BME280;33815;48.386;11.738;2023-07-24T11:47:03;95709.91;;;25.97;60.75
48041;BME280;33815;48.386;11.738;2023-07-24T11:49:30;95701.28;;;26.41;61.08
48041;BME280;33815;48.386;11.738;2023-07-24T11:52:04;95690.22;;;26.74;58.43
48041;BME280;33815;48.386;11.738;2023-07-24T11:54:30;95654.38;;;26.75;54.27
48041;BME280;33815;48.386;11.738;2023-07-24T11:56:55;95669.00;;;26.88;54.71
48041;BME280;33815;48.386;11.738;2023-07-24T11:59:21;95668.03;;;26.68;57.56
48041;BME280;33815;48.386;11.738;2023-07-24T12:01:47;95677.53;;;26.95;55.31
48041;BME280;33815;48.386;11.738;2023-07-24T12:04:15;95678.59;;;26.99;55.01
48041;BME280;33815;48.386;11.738;2023-07-24T12:06:41;95678.31;;;27.00;54.29
48041;BME280;33815;48.386;11.738;2023-07-24T12:09:07;95682.91;;;26.90;56.40
48041;BME280;33815;48.386;11.738;2023-07-24T12:11:33;95687.63;;;26.53;52.53
48041;BME280;33815;48.386;11.738;2023-07-24T12:13:58;95688.06;;;25.74;55.14
48041;BME280;33815;48.386;11.738;2023-07-24T12:16:24;95725.69;;;25.37;59.06
48041;BME280;33815;48.386;11.738;2023-07-24T12:18:49;95739.75;;;25.01;60.90
48041;BME280;33815;48.386;11.738;2023-07-24T12:21:15;95756.91;;;24.62;63.21
48041;BME280;33815;48.386;11.738;2023-07-24T12:23:40;95753.72;;;24.18;67.09
48041;BME280;33815;48.386;11.738;2023-07-24T12:26:05;95787.00;;;23.83;71.03
48041;BME280;33815;48.386;11.738;2023-07-24T12:28:31;95814.97;;;23.08;80.13
48041;BME280;33815;48.386;11.738;2023-07-24T12:30:56;95829.81;;;22.09;88.84
48041;BME280;33815;48.386;11.738;2023-07-24T12:33:21;95893.19;;;21.48;100.00
48041;BME280;33815;48.386;11.738;2023-07-24T12:35:50;95936.06;;;20.92;100.00
48041;BME280;33815;48.386;11.738;2023-07-24T12:38:15;95947.25;;;20.28;100.00
48041;BME280;33815;48.386;11.738;2023-07-24T12:40:40;95918.00;;;19.50;100.00
48041;BME280;33815;48.386;11.738;2023-07-24T12:43:06;95932.34;;;18.87;100.00